Time;durP1;ratioP1;P1;durP2;ratioP2;P2;SDS_P1;SDS_P2;PMS_P1;PMS_P2;Temp;Humidity;BMP_temperature;BMP_pressure;BME280_temperature;BME280_humidity;BME280_pressure;Samples;Min_cycle;Max_cycle;Signal;HPM_P1;HPM_P2
2021/01/29 00:00:48;;;;;;;26.13;5.93;;;12.30;99.90;;;11.53;100.00;100422.25;4120174;28;20063;-74
2021/01/29 00:02:54;;;;;;;31.88;7.50;;;12.40;99.90;;;11.53;100.00;100422.25;4102833;29;20039;-74
2021/01/29 00:04:55;;;;;;;20.40;5.35;;;12.40;99.90;;;11.48;100.00;100420.13;4119972;28;20038;-74
2021/01/29 00:06:56;;;;;;;29.27;7.35;;;12.40;99.90;;;11.47;100.00;100425.56;4103037;29;20042;-74
2021/01/29 00:08:57;;;;;;;30.98;6.18;;;12.40;99.90;;;11.46;100.00;100429.22;4119978;28;20015;-74
2021/01/29 00:10:58;;;;;;;24.55;5.35;;;12.40;99.90;;;11.44;100.00;100423.28;4102875;29;20056;-74
2021/01/29 00:12:59;;;;;;;26.27;5.53;;;12.30;99.90;;;11.45;100.00;100411.72;4119240;28;20470;-74
2021/01/29 00:14:59;;;;;;;31.77;6.55;;;12.30;99.90;;;11.44;100.00;100426.72;4102979;29;20035;-74
2021/01/29 00:17:01;;;;;;;30.30;5.57;;;12.30;99.90;;;11.45;100.00;100428.38;4120079;28;20458;-75
2021/01/29 00:19:03;;;;;;;28.80;7.13;;;12.30;99.90;;;11.39;100.00;100434.34;4102625;29;20034;-74
2021/01/29 00:21:04;;;;;;;27.90;6.32;;;12.30;99.90;;;11.38;100.00;100435.31;4102741;28;20520;-75
2021/01/29 00:23:05;;;;;;;22.23;4.90;;;12.20;99.90;;;11.34;100.00;100414.72;4120140;28;20406;-74
2021/01/29 00:25:15;;;;;;;36.00;7.53;;;12.30;99.90;;;11.40;100.00;100421.97;4102858;29;20035;-75
2021/01/29 00:27:16;;;;;;;36.88;7.20;;;12.20;99.90;;;11.43;100.00;100422.47;4103167;28;20039;-74
2021/01/29 00:29:17;;;;;;;38.15;6.10;;;12.30;99.90;;;11.43;100.00;100426.91;4102768;29;20020;-74
2021/01/29 00:31:18;;;;;;;23.13;5.25;;;12.30;99.90;;;11.34;100.00;100431.41;4102809;29;20046;-74
2021/01/29 00:33:26;;;;;;;30.58;6.93;;;12.30;99.90;;;11.37;100.00;100424.94;4118396;28;20027;-74
2021/01/29 00:35:31;;;;;;;27.40;6.28;;;12.20;99.90;;;11.40;100.00;100422.81;4102647;28;20067;-74
2021/01/29 00:37:32;;;;;;;30.40;5.95;;;12.20;99.90;;;11.34;100.00;100406.81;4102987;29;20110;-74
2021/01/29 00:39:32;;;;;;;34.50;7.20;;;12.20;99.90;;;11.34;100.00;100422.66;4102860;29;20023;-74
2021/01/29 00:41:33;;;;;;;36.50;7.82;;;12.20;99.90;;;11.32;100.00;100414.88;4119822;28;20054;-75
2021/01/29 00:43:34;;;;;;;28.00;5.03;;;12.20;99.90;;;11.28;100.00;100418.88;4119862;28;20042;-74
2021/01/29 00:45:38;;;;;;;24.17;5.65;;;12.20;99.90;;;11.28;100.00;100405.66;4102829;29;20023;-74
2021/01/29 00:47:39;;;;;;;39.60;6.55;;;12.10;99.90;;;11.24;100.00;100406.97;4102842;28;20031;-74
2021/01/29 00:49:40;;;;;;;32.63;6.85;;;12.10;99.90;;;11.30;100.00;100405.47;4102379;29;20039;-74
2021/01/29 00:51:41;;;;;;;26.70;6.95;;;12.00;99.90;;;11.15;100.00;100401.88;4119941;28;20023;-75
2021/01/29 00:53:43;;;;;;;34.08;8.68;;;12.00;99.90;;;11.13;100.00;100423.19;4102834;29;20023;-74
2021/01/29 00:55:44;;;;;;;30.00;6.55;;;11.90;99.90;;;11.12;100.00;100426.81;4102713;29;20034;-74
2021/01/29 00:57:45;;;;;;;32.65;8.43;;;11.90;99.90;;;11.15;100.00;100425.63;4119631;28;20022;-74
2021/01/29 00:59:46;;;;;;;32.53;5.13;;;12.00;99.90;;;11.11;100.00;100423.34;4102493;29;20062;-74
2021/01/29 01:01:47;;;;;;;31.75;7.57;;;11.90;99.90;;;11.17;100.00;100424.47;4102533;28;20038;-74
2021/01/29 01:03:48;;;;;;;30.92;6.68;;;12.00;99.90;;;11.22;100.00;100426.63;4119352;28;20069;-74
2021/01/29 01:05:49;;;;;;;41.67;8.95;;;12.00;99.90;;;11.14;100.00;100429.28;4102564;29;20079;-74
2021/01/29 01:07:50;;;;;;;34.40;7.15;;;12.00;99.90;;;11.16;100.00;100420.22;4106112;28;20027;-74
2021/01/29 01:09:51;;;;;;;30.75;6.18;;;12.10;99.90;;;11.11;100.00;100414.59;4124999;28;20023;-74
2021/01/29 01:11:51;;;;;;;41.95;8.35;;;12.00;99.90;;;11.09;100.00;100425.31;4123725;28;20035;-74
2021/01/29 01:14:00;;;;;;;45.13;7.38;;;12.00;99.90;;;11.05;100.00;100410.00;4107952;29;20566;-74
2021/01/29 01:16:01;;;;;;;45.20;7.90;;;11.90;99.90;;;11.10;100.00;100428.78;4107759;28;20023;-74
2021/01/29 01:18:07;;;;;;;36.75;10.02;;;11.90;99.90;;;11.08;100.00;100426.31;4124762;28;20031;-74
2021/01/29 01:20:13;;;;;;;40.60;7.65;;;11.90;99.90;;;11.02;100.00;100442.00;4124944;28;20142;-74
2021/01/29 01:22:14;;;;;;;41.00;8.80;;;11.90;99.90;;;11.00;100.00;100444.81;4107256;28;20557;-74
2021/01/29 01:24:15;;;;;;;30.30;6.22;;;11.90;99.90;;;10.98;100.00;100438.03;4107735;28;20078;-74
2021/01/29 01:26:15;;;;;;;34.72;6.95;;;11.90;99.90;;;10.95;100.00;100433.94;4124994;28;20147;-74
2021/01/29 01:28:16;;;;;;;33.10;6.72;;;11.90;99.90;;;11.02;100.00;100445.44;4124668;28;20026;-74
2021/01/29 01:30:25;;;;;;;36.63;8.00;;;11.90;99.90;;;11.04;100.00;100453.22;4124786;28;20074;-74
2021/01/29 01:32:26;;;;;;;31.30;7.25;;;11.90;99.90;;;11.05;100.00;100454.88;4108234;28;20035;-75
2021/01/29 01:34:27;;;;;;;42.63;8.48;;;11.80;99.90;;;10.98;100.00;100456.50;4124608;28;20375;-74
2021/01/29 01:36:28;;;;;;;37.85;8.95;;;11.90;99.90;;;10.98;100.00;100446.78;4091644;29;20415;-75
2021/01/29 01:38:29;;;;;;;36.03;8.60;;;11.90;99.90;;;10.94;100.00;100434.06;4124655;28;20030;-74
2021/01/29 01:40:37;;;;;;;29.25;8.00;;;11.80;99.90;;;10.91;100.00;100443.16;4124881;28;20070;-74
2021/01/29 01:42:38;;;;;;;36.88;7.68;;;11.80;99.90;;;10.88;100.00;100461.94;4107873;28;20031;-74
2021/01/29 01:44:44;;;;;;;36.10;7.80;;;11.70;99.90;;;10.86;100.00;100463.94;4107649;28;20031;-74
2021/01/29 01:46:45;;;;;;;41.63;8.45;;;11.70;99.90;;;10.84;100.00;100457.19;4124643;28;20025;-75
2021/01/29 01:49:00;;;;;;;33.50;7.65;;;11.60;99.90;;;10.87;100.00;100452.38;4107498;29;20031;-74
2021/01/29 01:51:03;;;;;;;41.22;6.47;;;11.60;99.90;;;10.88;100.00;100454.03;4124837;28;20034;-75
2021/01/29 01:53:16;;;;;;;39.67;7.63;;;11.70;99.90;;;10.91;100.00;100451.06;4107533;28;20454;-75
2021/01/29 01:55:25;;;;;;;34.72;6.30;;;11.70;99.90;;;10.97;100.00;100458.31;4123718;28;20058;-74
2021/01/29 01:57:28;;;;;;;46.08;8.55;;;11.80;99.90;;;10.93;100.00;100459.63;4107730;28;20534;-75
2021/01/29 01:59:36;;;;;;;36.05;7.22;;;11.80;99.90;;;10.89;100.00;100463.63;4107705;28;20467;-74
2021/01/29 02:01:37;;;;;;;39.15;7.35;;;11.70;99.90;;;10.84;100.00;100459.81;4107825;28;20122;-75
2021/01/29 02:03:40;;;;;;;39.70;8.25;;;11.70;99.90;;;10.81;100.00;100468.88;4124253;28;20102;-75
2021/01/29 02:05:41;;;;;;;45.15;8.85;;;11.70;99.90;;;10.84;100.00;100473.81;4107315;29;20095;-74
2021/01/29 02:07:50;;;;;;;39.63;6.65;;;11.70;99.90;;;10.88;100.00;100477.78;4107290;29;20038;-74
2021/01/29 02:09:51;;;;;;;41.80;6.13;;;11.70;99.90;;;10.84;100.00;100481.72;4108130;28;20027;-75
2021/01/29 02:11:53;;;;;;;37.67;8.02;;;11.70;99.90;;;10.75;100.00;100468.72;4107482;29;20031;-74
2021/01/29 02:13:54;;;;;;;30.77;7.07;;;11.60;99.90;;;10.77;100.00;100467.56;4107294;28;20027;-74
2021/01/29 02:16:11;;;;;;;37.88;8.52;;;11.60;99.90;;;10.80;100.00;100475.16;4107334;29;20038;-74
2021/01/29 02:18:43;;;;;;;50.53;8.23;;;11.60;99.90;;;10.86;100.00;100486.84;4107243;28;20027;-74
2021/01/29 02:21:24;;;;;;;37.30;6.35;;;11.60;99.90;;;10.84;100.00;100479.09;4121658;28;20031;-75
2021/01/29 02:23:28;;;;;;;39.65;7.72;;;11.60;99.90;;;10.82;100.00;100475.81;4121862;28;20031;-75
2021/01/29 02:25:50;;;;;;;36.28;7.40;;;11.60;99.90;;;10.84;100.00;100476.47;4121834;28;20035;-74
2021/01/29 02:28:00;;;;;;;35.58;6.40;;;11.70;99.90;;;10.85;100.00;100479.91;4122074;28;20034;-74
2021/01/29 02:30:41;;;;;;;35.85;9.55;;;11.70;99.90;;;10.80;100.00;100480.44;4116510;28;20498;-75
2021/01/29 02:33:31;;;;;;;38.13;7.88;;;11.70;99.90;;;10.82;100.00;100483.72;4121978;28;20031;-74
2021/01/29 02:36:00;;;;;;;37.17;6.72;;;11.70;99.90;;;10.83;100.00;100493.28;4121961;28;20454;-75
2021/01/29 02:38:39;;;;;;;31.25;6.05;;;11.70;99.90;;;10.82;100.00;100504.81;4120479;28;20035;-74
2021/01/29 02:41:08;;;;;;;37.97;7.05;;;11.70;99.90;;;10.81;100.00;100502.38;4104267;28;20074;-74
2021/01/29 02:44:09;;;;;;;31.33;7.03;;;11.70;99.90;;;10.85;100.00;100501.88;4105751;28;20057;-74
2021/01/29 02:46:27;;;;;;;37.30;6.65;;;11.70;99.90;;;10.85;99.43;100496.59;4072277;29;20043;-75
2021/01/29 02:48:36;;;;;;;36.38;6.50;;;11.60;99.90;;;10.78;99.88;100500.84;4072247;29;20044;-74
2021/01/29 02:51:09;;;;;;;40.53;7.13;;;11.60;99.90;;;10.65;99.00;100484.69;4087216;28;20042;-75
2021/01/29 02:53:24;;;;;;;31.05;7.03;;;11.50;99.90;;;10.63;99.74;100491.13;4089233;29;20050;-74
2021/01/29 02:55:26;;;;;;;32.45;6.60;;;11.50;99.90;;;10.63;98.73;100486.69;4120535;28;20106;-75
2021/01/29 02:58:02;;;;;;;38.63;6.10;;;11.50;99.90;;;10.69;98.57;100501.03;4104303;29;20392;-74
2021/01/29 03:00:23;;;;;;;27.90;6.95;;;11.50;99.90;;;10.61;97.52;100480.72;4121528;28;20398;-75
2021/01/29 03:03:07;;;;;;;37.70;7.55;;;11.50;99.90;;;10.66;97.27;100496.06;4105437;28;20031;-75
2021/01/29 03:05:20;;;;;;;40.40;7.32;;;11.50;99.90;;;10.65;97.21;100473.31;4106673;28;20028;-75
2021/01/29 03:07:33;;;;;;;31.00;6.60;;;11.50;99.90;;;10.68;97.39;100481.72;4104820;28;20033;-75
2021/01/29 03:09:40;;;;;;;26.73;6.05;;;11.50;99.90;;;10.77;97.34;100486.03;4105340;28;20035;-74
2021/01/29 03:11:46;;;;;;;32.63;7.03;;;11.60;99.90;;;10.81;97.11;100494.44;4121358;28;20046;-74
2021/01/29 03:14:15;;;;;;;39.10;6.43;;;11.60;99.90;;;10.65;97.51;100479.41;4121265;28;20035;-74
2021/01/29 03:16:27;;;;;;;37.35;6.85;;;11.50;99.90;;;10.72;97.22;100485.69;4104486;28;20163;-75
2021/01/29 03:18:41;;;;;;;35.22;6.65;;;11.50;99.90;;;10.66;97.27;100480.25;4104164;28;20027;-74
2021/01/29 03:20:51;;;;;;;34.88;7.63;;;11.50;99.90;;;10.62;97.01;100486.81;4104517;28;20039;-75
2021/01/29 03:23:11;;;;;;;37.15;7.68;;;11.50;99.90;;;10.62;96.80;100490.28;4121102;28;20041;-74
2021/01/29 03:25:30;;;;;;;44.22;8.80;;;11.50;99.90;;;10.63;96.42;100491.13;4104725;28;20031;-75
2021/01/29 03:27:40;;;;;;;35.75;8.07;;;11.50;99.90;;;10.60;97.00;100491.44;4104430;28;20540;-75
2021/01/29 03:29:47;;;;;;;34.05;6.45;;;11.40;99.90;;;10.59;96.57;100489.78;4087719;29;20023;-74
2021/01/29 03:31:55;;;;;;;35.00;7.97;;;11.40;99.90;;;10.60;96.06;100475.63;4088040;29;20032;-74
2021/01/29 03:34:30;;;;;;;26.23;5.38;;;11.40;99.90;;;10.52;96.30;100479.88;4088006;29;20095;-74
2021/01/29 03:36:39;;;;;;;33.67;7.82;;;11.40;99.90;;;10.54;97.01;100482.38;4079643;28;20516;-74
2021/01/29 03:39:07;;;;;;;34.33;7.47;;;11.40;99.90;;;10.63;96.93;100483.22;4103920;28;20039;-74
2021/01/29 03:41:30;;;;;;;29.85;6.03;;;11.40;99.90;;;10.63;97.30;100467.38;4104245;28;20027;-74
2021/01/29 03:43:56;;;;;;;36.35;6.65;;;11.40;99.90;;;10.65;97.32;100463.59;4103567;28;20039;-75
2021/01/29 03:46:02;;;;;;;38.83;8.18;;;11.50;99.90;;;10.59;98.02;100466.88;4119372;28;20478;-74
2021/01/29 03:48:29;;;;;;;41.33;8.20;;;11.50;99.90;;;10.53;98.11;100460.44;4103112;29;20031;-75
2021/01/29 03:50:52;;;;;;;40.50;7.75;;;11.50;99.90;;;10.65;97.94;100478.59;4104258;28;20027;-75
2021/01/29 03:53:48;;;;;;;36.50;9.65;;;11.40;99.90;;;10.66;97.65;100459.16;4120567;28;20031;-74
2021/01/29 03:56:19;;;;;;;29.35;8.65;;;11.50;99.90;;;10.62;98.25;100476.28;4105424;28;20039;-75
2021/01/29 03:58:51;;;;;;;37.58;8.13;;;11.50;99.90;;;10.62;97.71;100471.00;4103697;28;20038;-74
2021/01/29 04:01:27;;;;;;;34.60;6.68;;;11.50;99.90;;;10.63;98.32;100465.56;4105037;28;20114;-74
2021/01/29 04:03:44;;;;;;;32.70;6.72;;;11.50;99.90;;;10.60;98.32;100468.53;4099617;28;20053;-74
2021/01/29 04:05:59;;;;;;;41.25;9.75;;;11.50;99.90;;;10.65;98.28;100468.88;4103275;29;20027;-75
2021/01/29 04:08:34;;;;;;;38.17;7.50;;;11.50;99.90;;;10.59;98.58;100458.97;4120667;28;20074;-74
2021/01/29 04:10:35;;;;;;;40.20;8.57;;;11.50;99.90;;;10.74;98.60;100482.88;4120398;28;20035;-74
2021/01/29 04:12:53;;;;;;;43.13;7.20;;;11.50;99.90;;;10.65;99.14;100471.50;4103255;29;20035;-74
2021/01/29 04:15:15;;;;;;;39.00;7.45;;;11.50;99.90;;;10.63;99.59;100465.56;4104513;28;20059;-75
2021/01/29 04:17:23;;;;;;;43.85;9.10;;;11.50;99.90;;;10.60;99.47;100460.63;4103920;28;20510;-74
2021/01/29 04:19:29;;;;;;;41.03;9.45;;;11.50;99.90;;;10.65;99.08;100468.03;4102940;28;20037;-75
2021/01/29 04:21:50;;;;;;;37.88;7.70;;;11.50;99.90;;;10.62;99.11;100452.53;4103403;28;20107;-74
2021/01/29 04:24:00;;;;;;;50.38;8.73;;;11.50;99.90;;;10.57;99.53;100463.59;4120077;28;20038;-75
2021/01/29 04:26:13;;;;;;;42.40;10.07;;;11.40;99.90;;;10.58;99.29;100462.59;4103032;29;20031;-74
2021/01/29 04:28:18;;;;;;;32.35;7.70;;;11.50;99.90;;;10.57;99.47;100465.41;4103562;28;20031;-75
2021/01/29 04:30:26;;;;;;;44.50;8.68;;;11.50;99.90;;;10.59;99.40;100463.41;4102982;28;20035;-75
2021/01/29 04:32:36;;;;;;;41.17;6.97;;;11.50;99.90;;;10.62;99.13;100458.66;4103519;28;20522;-74
2021/01/29 04:34:41;;;;;;;39.55;8.38;;;11.50;99.90;;;10.65;99.32;100463.59;4103204;28;20035;-75
2021/01/29 04:36:43;;;;;;;39.13;9.15;;;11.50;99.90;;;10.59;99.60;100458.13;4120038;28;20106;-75
2021/01/29 04:38:56;;;;;;;34.00;7.35;;;11.40;99.90;;;10.61;99.14;100478.09;4103001;29;20155;-75
2021/01/29 04:41:31;;;;;;;37.55;8.82;;;11.40;99.90;;;10.56;99.63;100461.94;4103305;28;20494;-75
2021/01/29 04:43:58;;;;;;;42.60;9.73;;;11.40;99.90;;;10.52;99.76;100465.88;4119792;28;20122;-75
2021/01/29 04:46:31;;;;;;;38.97;9.02;;;11.40;99.90;;;10.60;99.96;100471.19;4104613;28;20118;-75
2021/01/29 04:49:00;;;;;;;42.80;8.75;;;11.50;99.90;;;10.56;99.87;100464.56;4103560;28;20022;-76
2021/01/29 04:51:26;;;;;;;44.63;8.23;;;11.50;99.90;;;10.59;99.72;100473.97;4119916;28;20095;-74
2021/01/29 04:54:11;;;;;;;38.70;8.07;;;11.40;99.90;;;10.62;100.00;100474.47;4102610;29;20054;-74
2021/01/29 04:57:03;;;;;;;40.00;9.30;;;11.50;99.90;;;10.62;99.86;100466.56;4119975;28;20515;-74
2021/01/29 04:59:39;;;;;;;37.40;9.25;;;11.40;99.90;;;10.53;100.00;100457.81;4088229;29;20399;-75
2021/01/29 05:02:11;;;;;;;47.45;8.45;;;11.50;99.90;;;10.56;99.57;100456.66;4104819;28;20059;-75
2021/01/29 05:04:30;;;;;;;45.97;9.57;;;11.50;99.90;;;10.62;99.26;100482.38;4103074;28;20558;-75
2021/01/29 05:07:24;;;;;;;30.88;6.93;;;11.50;99.90;;;10.63;98.63;100478.78;4118495;28;20129;-76
2021/01/29 05:10:18;;;;;;;37.03;7.80;;;11.50;99.90;;;10.63;98.99;100468.22;4044210;28;20082;-75
2021/01/29 05:13:01;;;;;;;38.70;8.95;;;11.50;99.90;;;10.64;98.61;100476.94;4104921;28;20538;-75
2021/01/29 05:15:45;;;;;;;40.83;7.38;;;11.50;99.90;;;10.56;98.44;100477.75;4119830;28;20027;-75
2021/01/29 05:18:10;;;;;;;36.25;8.55;;;11.50;99.90;;;10.60;98.57;100467.72;4104210;28;20074;-74
2021/01/29 05:20:45;;;;;;;34.35;7.78;;;11.50;99.90;;;10.61;98.30;100471.97;4119847;28;20035;-75
2021/01/29 05:23:23;;;;;;;30.67;6.78;;;11.50;99.90;;;10.65;98.07;100468.03;4098966;28;20041;-74
2021/01/29 05:26:11;;;;;;;36.55;6.70;;;11.50;99.90;;;10.55;98.77;100482.19;4119528;28;20514;-75
2021/01/29 05:28:58;;;;;;;42.65;7.63;;;11.50;99.90;;;10.61;98.33;100480.72;4117964;28;20109;-74
2021/01/29 05:31:19;;;;;;;39.88;8.15;;;11.40;99.90;;;10.59;98.07;100487.97;4100661;28;20046;-75
2021/01/29 05:33:45;;;;;;;47.75;8.25;;;11.40;99.90;;;10.60;98.62;100483.53;4103011;28;20633;-74
2021/01/29 05:36:13;;;;;;;37.88;8.30;;;11.40;99.90;;;10.61;98.31;100493.09;4103773;28;20126;-74
2021/01/29 05:38:29;;;;;;;25.00;6.15;;;11.40;99.90;;;10.57;98.38;100487.31;4119618;28;20397;-74
2021/01/29 05:40:57;;;;;;;39.17;7.53;;;11.40;99.90;;;10.55;98.47;100490.13;4119628;28;20114;-74
2021/01/29 05:43:48;;;;;;;42.58;7.60;;;11.40;99.90;;;10.52;98.63;100479.88;4118263;28;20030;-74
2021/01/29 05:46:19;;;;;;;37.25;7.93;;;11.40;99.90;;;10.56;97.81;100475.13;4085692;29;20076;-74
2021/01/29 05:48:57;;;;;;;41.17;7.90;;;11.40;99.90;;;10.57;97.88;100488.13;4103080;28;20593;-74
2021/01/29 05:51:28;;;;;;;37.47;6.47;;;11.40;99.90;;;10.61;98.42;100499.19;4119406;28;20482;-74
2021/01/29 05:54:13;;;;;;;34.05;5.90;;;11.40;99.90;;;10.59;97.31;100489.78;4120564;28;20035;-74
2021/01/29 05:56:55;;;;;;;44.28;9.18;;;11.50;99.90;;;10.56;97.67;100490.94;4122421;28;20054;-74
2021/01/29 05:59:30;;;;;;;40.45;8.90;;;11.50;99.90;;;10.53;97.42;100489.47;4094627;28;20043;-75
2021/01/29 06:02:18;;;;;;;36.78;7.60;;;11.40;99.90;;;10.52;97.59;100489.59;4122433;28;20092;-75
2021/01/29 06:04:56;;;;;;;38.42;7.55;;;11.30;99.90;;;10.45;97.86;100478.06;4121920;28;20041;-75
2021/01/29 06:07:35;;;;;;;40.08;6.82;;;11.30;99.90;;;10.40;97.88;100490.88;4122298;28;20050;-75
2021/01/29 06:10:19;;;;;;;32.03;8.40;;;11.20;99.90;;;10.39;97.51;100489.25;4105019;28;20039;-75
2021/01/29 06:12:50;;;;;;;32.85;8.68;;;11.20;99.90;;;10.40;97.54;100490.88;4091215;28;20496;-75
2021/01/29 06:15:55;;;;;;;37.20;8.63;;;11.20;99.90;;;10.42;97.60;100488.94;4122282;28;20027;-75
2021/01/29 06:18:15;;;;;;;29.25;5.45;;;11.20;99.90;;;10.36;97.39;100492.22;4122106;28;20055;-75
2021/01/29 06:21:01;;;;;;;42.33;8.85;;;11.10;99.90;;;10.38;97.71;100492.88;4104820;29;20522;-75
2021/01/29 06:23:34;;;;;;;35.80;7.85;;;11.20;99.90;;;10.35;97.45;100493.19;4069455;28;20438;-75
2021/01/29 06:25:49;;;;;;;45.45;7.75;;;11.20;99.90;;;10.32;97.55;100482.97;4105047;28;20095;-75
2021/01/29 06:28:41;;;;;;;39.35;9.40;;;11.20;99.90;;;10.33;97.91;100506.56;4089285;29;20034;-75
2021/01/29 06:30:51;;;;;;;35.67;8.10;;;11.20;99.90;;;10.30;98.11;100500.78;4098218;28;20030;-74
2021/01/29 06:33:10;;;;;;;44.67;8.75;;;11.20;99.90;;;10.31;98.16;100505.88;4121783;28;20030;-75
2021/01/29 06:35:29;;;;;;;51.17;9.68;;;11.10;99.90;;;10.33;97.85;100511.00;4121814;28;20034;-75
2021/01/29 06:37:47;;;;;;;31.65;8.32;;;11.20;99.90;;;10.37;97.87;100522.84;4104801;29;20590;-75
2021/01/29 06:40:51;;;;;;;38.25;8.25;;;11.20;99.90;;;10.39;97.76;100513.00;4121783;28;20035;-75
2021/01/29 06:43:06;;;;;;;37.70;7.18;;;11.20;99.90;;;10.42;97.96;100516.09;4072493;29;20044;-75
2021/01/29 06:45:35;;;;;;;41.33;6.70;;;11.20;99.90;;;10.40;98.12;100514.63;4112199;28;20098;-74
2021/01/29 06:48:14;;;;;;;40.28;7.35;;;11.20;99.90;;;10.41;98.15;100513.66;4121875;28;20115;-75
2021/01/29 06:51:06;;;;;;;36.70;8.48;;;11.20;99.90;;;10.42;98.71;100516.09;4106347;28;20541;-74
2021/01/29 06:53:33;;;;;;;36.72;6.53;;;11.20;99.90;;;10.38;98.42;100527.16;4109792;28;20049;-74
2021/01/29 06:56:05;;;;;;;34.72;7.65;;;11.20;99.90;;;10.44;97.85;100513.31;4105090;28;20023;-75
2021/01/29 06:58:27;;;;;;;39.00;7.90;;;11.20;99.90;;;10.39;97.92;100516.44;4121439;28;20039;-75
2021/01/29 07:01:12;;;;;;;34.92;7.53;;;11.20;99.90;;;10.39;98.03;100529.63;4104610;28;20070;-75
2021/01/29 07:03:39;;;;;;;32.60;7.10;;;11.20;99.90;;;10.40;97.72;100533.09;4121327;28;20445;-75
2021/01/29 07:06:08;;;;;;;45.00;8.15;;;11.20;99.90;;;10.38;98.10;100535.88;4104736;28;20023;-75
2021/01/29 07:09:18;;;;;;;38.50;8.13;;;11.20;99.90;;;10.38;97.90;100527.97;4121543;28;20114;-75
2021/01/29 07:11:40;;;;;;;39.90;8.07;;;11.20;99.90;;;10.40;97.53;100527.81;4104549;28;20035;-74
2021/01/29 07:13:58;;;;;;;43.95;8.30;;;11.20;99.90;;;10.38;97.96;100529.78;4121248;28;20454;-75
2021/01/29 07:16:26;;;;;;;43.05;6.80;;;11.20;99.90;;;10.42;97.74;100541.69;4104227;29;20122;-75
2021/01/29 07:19:10;;;;;;;35.33;8.07;;;11.20;99.90;;;10.47;97.28;100544.66;4120983;28;20026;-75
2021/01/29 07:21:32;;;;;;;29.15;6.57;;;11.30;99.90;;;10.47;96.44;100520.91;4119372;28;20050;-75
2021/01/29 07:23:56;;;;;;;36.72;7.18;;;11.30;99.90;;;10.46;96.48;100529.81;4108096;28;20126;-74
2021/01/29 07:26:31;;;;;;;27.02;6.95;;;11.30;99.90;;;10.45;96.33;100536.09;4119770;28;20031;-75
2021/01/29 07:29:18;;;;;;;38.80;7.25;;;11.30;99.90;;;10.49;96.16;100516.31;4120833;28;20034;-75
2021/01/29 07:31:45;;;;;;;41.15;6.95;;;11.30;99.90;;;10.52;96.46;100542.34;4103846;28;20086;-75
2021/01/29 07:34:13;;;;;;;34.90;8.02;;;11.30;99.90;;;10.51;96.14;100524.91;4103328;29;20070;-75
2021/01/29 07:36:39;;;;;;;39.00;6.75;;;11.40;99.90;;;10.54;95.83;100529.84;4105755;28;20058;-74
2021/01/29 07:39:32;;;;;;;33.30;8.13;;;11.40;99.90;;;10.51;96.02;100530.97;4105393;28;20075;-74
2021/01/29 07:42:22;;;;;;;37.03;7.55;;;11.40;99.90;;;10.54;96.72;100529.84;4028408;29;20047;-74
2021/01/29 07:44:54;;;;;;;36.47;7.20;;;11.50;99.90;;;10.56;96.39;100533.16;4120670;28;20034;-74
2021/01/29 07:47:28;;;;;;;45.42;9.50;;;11.40;99.90;;;10.59;96.30;100532.81;4104548;28;20117;-75
2021/01/29 07:50:15;;;;;;;40.45;9.18;;;11.40;99.90;;;10.57;96.41;100528.69;4120420;28;20430;-74
2021/01/29 07:52:43;;;;;;;33.50;8.70;;;11.50;99.90;;;10.57;95.98;100524.25;4093955;28;20050;-74
2021/01/29 07:55:15;;;;;;;44.30;9.27;;;11.40;99.90;;;10.57;96.33;100524.25;4104486;28;20078;-74
2021/01/29 07:57:29;;;;;;;33.88;7.32;;;11.50;99.90;;;10.65;96.10;100531.34;4088939;29;20467;-75
2021/01/29 08:00:10;;;;;;;42.90;6.73;;;11.50;99.90;;;10.60;95.90;100531.84;4120366;28;20513;-75
2021/01/29 08:02:50;;;;;;;40.58;6.80;;;11.40;99.90;;;10.51;96.27;100538.09;4120442;28;20267;-75
2021/01/29 08:05:26;;;;;;;34.33;6.28;;;11.40;99.90;;;10.54;96.00;100533.28;4120359;28;20037;-74
2021/01/29 08:07:35;;;;;;;34.92;7.78;;;11.40;99.90;;;10.54;96.13;100529.84;4120335;28;20417;-75
2021/01/29 08:09:40;;;;;;;40.47;8.07;;;11.40;99.90;;;10.59;95.97;100524.06;4087429;29;20024;-75
2021/01/29 08:11:42;;;;;;;36.65;9.52;;;11.40;99.90;;;10.52;96.13;100543.19;4103413;28;20027;-75
2021/01/29 08:14:11;;;;;;;36.78;6.88;;;11.40;99.90;;;10.55;96.05;100552.56;4103188;28;20032;-75
2021/01/29 08:16:56;;;;;;;32.17;7.32;;;11.40;99.90;;;10.59;95.90;100542.53;4120042;28;20102;-73
2021/01/29 08:19:13;;;;;;;29.92;5.80;;;11.40;99.90;;;10.64;96.07;100548.16;4119851;28;20046;-74
2021/01/29 08:21:59;;;;;;;40.47;8.93;;;11.50;99.90;;;10.74;95.79;100559.41;4100942;28;20545;-73
2021/01/29 08:24:53;;;;;;;36.72;8.43;;;11.50;99.90;;;10.75;95.89;100561.84;4057666;28;20478;-73
2021/01/29 08:27:09;;;;;;;38.97;7.55;;;11.60;99.90;;;10.66;96.43;100549.66;4054974;29;20035;-73
2021/01/29 08:29:25;;;;;;;35.42;6.85;;;11.60;99.90;;;10.77;95.91;100554.63;4103455;28;20041;-74
2021/01/29 08:31:36;;;;;;;27.58;6.10;;;11.60;99.90;;;10.73;95.63;100544.53;4120067;28;20486;-74
2021/01/29 08:33:42;;;;;;;40.95;7.05;;;11.60;99.90;;;10.68;95.68;100542.41;4103527;28;20023;-74
2021/01/29 08:36:01;;;;;;;39.72;6.88;;;11.50;99.90;;;10.62;95.87;100547.50;4102733;29;20038;-74
2021/01/29 08:38:23;;;;;;;36.78;7.88;;;11.50;99.90;;;10.60;95.60;100537.13;4119743;28;20031;-74
2021/01/29 08:40:48;;;;;;;33.85;7.50;;;11.40;99.90;;;10.51;95.18;100527.53;4119986;28;20160;-75
2021/01/29 08:43:07;;;;;;;28.30;6.90;;;11.40;99.90;;;10.60;94.33;100538.94;4101269;28;20058;-74
2021/01/29 08:45:35;;;;;;;39.75;8.10;;;11.40;99.90;;;10.52;94.57;100535.28;4112413;28;20027;-75
2021/01/29 08:47:54;;;;;;;36.00;6.68;;;11.40;99.90;;;10.50;94.67;100549.59;4116058;28;20035;-75
2021/01/29 08:50:06;;;;;;;31.40;6.72;;;11.40;99.90;;;10.52;94.45;100550.25;4118491;28;20023;-76
2021/01/29 08:52:29;;;;;;;22.83;4.93;;;11.40;99.90;;;10.57;94.01;100541.88;4086375;29;20098;-74
2021/01/29 08:55:01;;;;;;;29.05;5.93;;;11.40;99.90;;;10.57;94.20;100567.25;4115312;28;20034;-74
2021/01/29 08:57:18;;;;;;;26.17;5.03;;;11.50;99.90;;;10.62;93.79;100550.13;4119282;28;20031;-74
2021/01/29 08:59:26;;;;;;;30.08;6.43;;;11.50;99.90;;;10.66;93.50;100543.56;4118862;28;20019;-74
2021/01/29 09:01:42;;;;;;;34.45;7.60;;;11.50;99.90;;;10.66;93.79;100539.13;4087029;29;20126;-74
2021/01/29 09:03:59;;;;;;;28.98;6.50;;;11.50;99.90;;;10.60;93.56;100537.13;4101483;29;20120;-74
2021/01/29 09:06:22;;;;;;;35.40;8.43;;;11.50;99.90;;;10.61;93.49;100535.28;4118159;28;20398;-74
2021/01/29 09:08:23;;;;;;;34.28;7.25;;;11.50;99.90;;;10.65;93.17;100552.44;4048702;28;20177;-74
2021/01/29 09:10:48;;;;;;;39.55;7.03;;;11.50;99.90;;;10.66;93.08;100544.38;4134909;28;20030;-73
2021/01/29 09:13:12;;;;;;;;;;;11.50;99.90;;;10.64;93.41;100550.78;4135971;28;20081;-73
2021/01/29 09:15:50;;;;;;;30.67;5.97;;;11.50;99.90;;;10.64;93.12;100545.50;4118567;28;20013;-74
2021/01/29 09:18:16;;;;;;;35.95;6.28;;;11.50;99.90;;;10.63;93.16;100534.16;4119506;28;20066;-73
2021/01/29 09:20:26;;;;;;;29.40;7.00;;;11.50;99.90;;;10.69;93.87;100543.25;4101724;28;20031;-73
2021/01/29 09:23:03;;;;;;;28.80;5.70;;;11.60;99.90;;;10.75;92.57;100548.66;4105330;28;20046;-74
2021/01/29 09:25:25;;;;;;;36.15;7.82;;;11.60;99.90;;;10.78;92.67;100558.09;4135511;28;20498;-74
2021/01/29 09:28:31;;;;;;;30.58;7.82;;;11.60;99.90;;;10.83;92.44;100553.97;4135630;28;20084;-73
2021/01/29 09:30:40;;;;;;;34.83;7.93;;;11.70;99.90;;;10.81;92.33;100552.50;4059833;29;20474;-73
2021/01/29 09:32:56;;;;;;;32.05;8.65;;;11.70;99.90;;;10.79;91.37;100554.44;4111648;28;20537;-73
2021/01/29 09:35:01;;;;;;;30.42;6.35;;;11.80;99.90;;;10.89;91.63;100566.53;4105828;28;20122;-74
2021/01/29 09:37:11;;;;;;;36.38;6.55;;;11.80;99.90;;;10.85;91.25;100564.34;4121418;28;20031;-75